Time;durP1;ratioP1;P1;durP2;ratioP2;P2;SDS_P1;SDS_P2;PMS_P1;PMS_P2;Temp;Humidity;BMP_temperature;BMP_pressure;BME280_temperature;BME280_humidity;BME280_pressure;Samples;Min_cycle;Max_cycle;Signal;HPM_P1;HPM_P2
2024/03/07 00:01:55;;;;;;;0.10;0.10;;;;;;;;;;4995252;28;20117;-87
2024/03/07 00:04:21;;;;;;;0.10;0.10;;;;;;;;;;4993405;28;20061;-87
2024/03/07 00:06:48;;;;;;;0.10;0.10;;;;;;;;;;4991193;28;20034;-87
2024/03/07 00:09:15;;;;;;;0.10;0.10;;;;;;;;;;4994867;28;20477;-87
2024/03/07 00:11:41;;;;;;;0.10;0.10;;;;;;;;;;4995272;28;20094;-88
2024/03/07 00:14:07;;;;;;;0.10;0.10;;;;;;;;;;4991746;28;20054;-87
2024/03/07 00:16:33;;;;;;;0.10;0.10;;;5.60;99.90;;;;;;4995639;28;20026;-87
2024/03/07 00:19:00;;;;;;;0.10;0.10;;;;;;;;;;4993646;28;20119;-88
2024/03/07 00:21:26;;;;;;;0.10;0.10;;;;;;;;;;4992224;28;20049;-89
2024/03/07 00:23:53;;;;;;;0.10;0.10;;;;;;;;;;4993946;28;20027;-88
2024/03/07 00:26:19;;;;;;;0.10;0.10;;;;;;;;;;4993811;28;20117;-87
2024/03/07 00:28:45;;;;;;;0.10;0.10;;;;;;;;;;4995674;28;20058;-87
2024/03/07 00:31:11;;;;;;;0.10;0.10;;;;;;;;;;4992076;28;20376;-88
2024/03/07 00:33:37;;;;;;;0.10;0.10;;;;;;;;;;4995325;28;20424;-88
2024/03/07 00:36:03;;;;;;;0.10;0.10;;;;;;;;;;4991997;28;20035;-85
2024/03/07 00:38:29;;;;;;;0.05;0.05;;;;;;;;;;4998716;28;20049;-88
2024/03/07 00:40:55;;;;;;;0.10;0.10;;;;;;;;;;4993906;28;20030;-89
2024/03/07 00:43:21;;;;;;;0.10;0.10;;;;;;;;;;4992805;28;20050;-89
2024/03/07 00:45:49;;;;;;;0.10;0.10;;;;;;;;;;4995432;28;20042;-88
2024/03/07 00:48:16;;;;;;;0.00;0.00;;;;;;;;;;4994830;28;20098;-87
2024/03/07 00:50:42;;;;;;;0.10;0.10;;;;;;;;;;4996970;28;20042;-87
2024/03/07 00:53:08;;;;;;;0.10;0.10;;;;;;;;;;4998101;28;20037;-87
2024/03/07 00:55:34;;;;;;;0.10;0.10;;;;;;;;;;4992692;28;20810;-88
2024/03/07 00:58:00;;;;;;;0.10;0.10;;;;;;;;;;5000273;28;20557;-87
2024/03/07 01:00:28;;;;;;;0.10;0.10;;;;;;;;;;4994222;28;20125;-89
2024/03/07 01:02:54;;;;;;;0.08;0.08;;;;;;;;;;4995218;28;20041;-88
2024/03/07 01:05:20;;;;;;;0.10;0.10;;;;;;;;;;4996531;28;20384;-88
2024/03/07 01:07:47;;;;;;;0.00;0.00;;;;;;;;;;4997849;28;20030;-88
2024/03/07 01:10:14;;;;;;;0.10;0.10;;;4.20;99.90;;;;;;4996060;28;20045;-87
2024/03/07 01:12:43;;;;;;;0.10;0.10;;;;;;;;;;4994926;28;20031;-86
2024/03/07 01:15:11;;;;;;;0.10;0.10;;;;;;;;;;4999148;28;20526;-87
2024/03/07 01:17:37;;;;;;;0.10;0.10;;;;;;;;;;4996070;28;20034;-88
2024/03/07 01:20:04;;;;;;;0.10;0.10;;;;;;;;;;4999865;28;20089;-88
2024/03/07 01:22:30;;;;;;;0.10;0.10;;;;;;;;;;4997944;28;20053;-88
2024/03/07 01:24:56;;;;;;;0.10;0.10;;;;;;;;;;4996438;28;20030;-87
2024/03/07 01:27:24;;;;;;;0.10;0.10;;;;;;;;;;4996074;28;20044;-86
2024/03/07 01:29:50;;;;;;;0.10;0.10;;;;;;;;;;4996296;28;20185;-87
2024/03/07 01:32:16;;;;;;;0.10;0.10;;;;;;;;;;4996770;28;20054;-89
2024/03/07 01:34:42;;;;;;;0.03;0.03;;;;;;;;;;4994192;28;20050;-87
2024/03/07 01:37:08;;;;;;;0.00;0.00;;;;;;;;;;4997762;28;20038;-87
2024/03/07 01:39:34;;;;;;;0.10;0.10;;;;;;;;;;4996326;28;20042;-88
2024/03/07 01:41:59;;;;;;;0.10;0.10;;;3.70;99.90;;;;;;4996386;28;20045;-87
2024/03/07 01:44:25;;;;;;;0.10;0.10;;;;;;;;;;4992770;28;20038;-88
2024/03/07 01:46:52;;;;;;;0.10;0.10;;;;;;;;;;4991318;28;20038;-87
2024/03/07 01:49:18;;;;;;;0.10;0.10;;;;;;;;;;4997090;28;20045;-88
2024/03/07 01:51:44;;;;;;;0.10;0.10;;;;;;;;;;4995415;28;20168;-88
2024/03/07 01:54:10;;;;;;;0.10;0.10;;;;;;;;;;4994605;28;21722;-88
2024/03/07 01:56:36;;;;;;;0.00;0.00;;;3.40;99.90;;;;;;4995141;28;20066;-87
2024/03/07 01:59:05;;;;;;;0.10;0.10;;;;;;;;;;4995155;28;20053;-87
2024/03/07 02:01:31;;;;;;;0.10;0.10;;;;;;;;;;4999331;28;20457;-87
2024/03/07 02:03:57;;;;;;;0.08;0.08;;;;;;;;;;4996911;28;20038;-87
2024/03/07 02:06:23;;;;;;;0.03;0.03;;;;;;;;;;4995636;28;20507;-87
2024/03/07 02:08:49;;;;;;;0.10;0.10;;;;;;;;;;4997762;28;20030;-87
2024/03/07 02:11:15;;;;;;;0.10;0.10;;;3.20;99.90;;;;;;4993984;28;20546;-87
2024/03/07 02:13:41;;;;;;;0.10;0.10;;;;;;;;;;5000780;28;20027;-89
2024/03/07 02:16:07;;;;;;;0.10;0.10;;;;;;;;;;4998493;28;20455;-85
2024/03/07 02:18:34;;;;;;;0.10;0.10;;;3.20;99.90;;;;;;5001383;28;20098;-88
2024/03/07 02:21:00;;;;;;;0.10;0.10;;;;;;;;;;5001326;28;20030;-87
2024/03/07 02:23:27;;;;;;;0.10;0.10;;;;;;;;;;4998164;28;20037;-88
2024/03/07 02:25:53;;;;;;;0.10;0.10;;;;;;;;;;4998543;28;20041;-89
2024/03/07 02:28:19;;;;;;;0.10;0.10;;;;;;;;;;4999664;28;20022;-87
2024/03/07 02:30:46;;;;;;;0.10;0.10;;;;;;;;;;5001298;28;20034;-88
2024/03/07 02:33:12;;;;;;;0.10;0.10;;;;;;;;;;4993492;28;20090;-89
2024/03/07 02:35:38;;;;;;;0.10;0.10;;;;;;;;;;4999925;28;20065;-87
2024/03/07 02:38:04;;;;;;;0.00;0.00;;;;;;;;;;4999747;28;20084;-88
2024/03/07 02:40:30;;;;;;;0.00;0.00;;;;;;;;;;4994088;28;20029;-87
2024/03/07 02:42:56;;;;;;;0.10;0.10;;;;;;;;;;5000283;28;20113;-87
2024/03/07 02:45:22;;;;;;;0.00;0.00;;;;;;;;;;4992291;28;20520;-88
2024/03/07 02:47:48;;;;;;;0.10;0.10;;;;;;;;;;4998757;28;20031;-87
2024/03/07 02:50:14;;;;;;;0.10;0.10;;;;;;;;;;4996868;28;20042;-87
2024/03/07 03:36:38;;;;;;;0.00;0.00;;;;;;;;;;4955345;28;20047;-93
2024/03/07 03:39:04;;;;;;;0.10;0.10;;;;;;;;;;4969803;28;20094;-92
2024/03/07 03:41:30;;;;;;;0.10;0.10;;;;;;;;;;4985209;28;20035;-92
2024/03/07 03:43:56;;;;;;;0.00;0.00;;;;;;;;;;4988014;28;20023;-94
2024/03/07 03:46:23;;;;;;;0.10;0.10;;;;;;;;;;4955148;28;20038;-92
2024/03/07 03:51:17;;;;;;;0.00;0.00;;;;;;;;;;4978078;28;20073;-87
2024/03/07 03:53:44;;;;;;;0.10;0.10;;;;;;;;;;5010311;28;20066;-85
2024/03/07 03:56:15;;;;;;;0.10;0.10;;;;;;;;;;5010530;28;20441;-85
2024/03/07 03:58:41;;;;;;;0.03;0.03;;;;;;;;;;4980384;28;20057;-87
2024/03/07 04:01:12;;;;;;;0.03;0.03;;;;;;;;;;4996617;28;20505;-88
2024/03/07 04:03:38;;;;;;;0.00;0.00;;;;;;;;;;4997133;28;20034;-89
2024/03/07 04:06:04;;;;;;;0.05;0.05;;;;;;;;;;4980954;28;20496;-89
2024/03/07 04:08:31;;;;;;;0.00;0.00;;;;;;;;;;4980092;28;20501;-87
2024/03/07 04:10:57;;;;;;;0.00;0.00;;;;;;;;;;4978107;28;20031;-86
2024/03/07 04:13:23;;;;;;;0.10;0.10;;;;;;;;;;4995411;28;20543;-88
2024/03/07 04:15:49;;;;;;;0.10;0.10;;;;;;;;;;4994704;28;20034;-87
2024/03/07 04:18:15;;;;;;;0.00;0.00;;;;;;;;;;4973970;28;20026;-88
2024/03/07 04:20:44;;;;;;;0.00;0.00;;;;;;;;;;4994565;28;20114;-87
2024/03/07 04:23:10;;;;;;;0.10;0.10;;;;;;;;;;4979758;28;20031;-88
2024/03/07 04:25:36;;;;;;;0.10;0.10;;;;;;;;;;4980846;28;20520;-89
2024/03/07 04:28:02;;;;;;;0.00;0.00;;;;;;;;;;5006247;28;20093;-90
2024/03/07 04:30:28;;;;;;;0.10;0.10;;;;;;;;;;4993946;28;20098;-88
2024/03/07 04:32:54;;;;;;;0.00;0.00;;;;;;;;;;4993197;28;20469;-88
2024/03/07 04:35:21;;;;;;;0.00;0.00;;;;;;;;;;4991069;28;20478;-88
2024/03/07 04:37:47;;;;;;;0.05;0.05;;;;;;;;;;4971298;28;20873;-89
2024/03/07 04:40:16;;;;;;;0.10;0.10;;;;;;;;;;4992813;28;20042;-88
2024/03/07 04:42:46;;;;;;;0.10;0.10;;;;;;;;;;4981243;28;20061;-88
2024/03/07 04:45:13;;;;;;;0.10;0.10;;;;;;;;;;5009386;28;20408;-84
2024/03/07 04:47:39;;;;;;;0.10;0.10;;;;;;;;;;5004420;28;20085;-87
2024/03/07 04:50:06;;;;;;;0.00;0.00;;;;;;;;;;5006912;28;20034;-88
2024/03/07 04:52:32;;;;;;;0.00;0.00;;;;;;;;;;5009289;28;20104;-87
2024/03/07 04:54:58;;;;;;;0.10;0.10;;;;;;;;;;4994926;28;20031;-88
2024/03/07 04:57:25;;;;;;;0.10;0.10;;;;;;;;;;4977752;28;20044;-88
2024/03/07 04:59:51;;;;;;;0.03;0.03;;;;;;;;;;5009877;28;20041;-88
2024/03/07 05:02:17;;;;;;;0.00;0.00;;;;;;;;;;5005916;28;20113;-88
2024/03/07 05:04:43;;;;;;;0.00;0.00;;;;;;;;;;4999039;28;20098;-88
2024/03/07 05:07:09;;;;;;;0.08;0.08;;;;;;;;;;4975027;28;20027;-88
2024/03/07 05:09:35;;;;;;;0.10;0.10;;;;;;;;;;4991408;28;20695;-87
2024/03/07 05:12:01;;;;;;;0.10;0.10;;;;;;;;;;4995592;28;20031;-87
2024/03/07 05:14:27;;;;;;;0.00;0.00;;;;;;;;;;5004598;28;20470;-86
2024/03/07 05:17:04;;;;;;;0.10;0.10;;;;;;;;;;4972365;28;20039;-87
2024/03/07 05:19:31;;;;;;;0.10;0.10;;;;;;;;;;5002725;28;20035;-87
2024/03/07 05:21:57;;;;;;;0.10;0.10;;;;;;;;;;4991485;28;20038;-88
2024/03/07 05:24:23;;;;;;;0.00;0.00;;;;;;;;;;4992244;28;20035;-88
2024/03/07 05:26:49;;;;;;;0.10;0.10;;;;;;;;;;4995363;28;20409;-89
2024/03/07 05:29:17;;;;;;;0.10;0.10;;;;;;;;;;4990903;28;20027;-87
2024/03/07 05:31:46;;;;;;;0.10;0.10;;;;;;;;;;5002811;28;20028;-87
2024/03/07 05:34:13;;;;;;;0.10;0.10;;;;;;;;;;4990120;28;20043;-87
2024/03/07 05:36:46;;;;;;;0.00;0.00;;;;;;;;;;4976041;28;20037;-88
2024/03/07 05:39:12;;;;;;;0.03;0.03;;;;;;;;;;4976907;28;20034;-87
2024/03/07 05:41:39;;;;;;;0.10;0.10;;;;;;;;;;4992380;28;20502;-88
2024/03/07 05:44:11;;;;;;;0.10;0.10;;;;;;;;;;4992717;28;20086;-87
2024/03/07 05:46:48;;;;;;;0.00;0.00;;;;;;;;;;4992972;28;20035;-87
2024/03/07 05:49:14;;;;;;;0.10;0.10;;;;;;;;;;4994812;28;20035;-87
2024/03/07 05:51:47;;;;;;;0.00;0.00;;;;;;;;;;4991482;28;20030;-87
2024/03/07 05:54:13;;;;;;;0.08;0.08;;;;;;;;;;4988679;28;20031;-87
2024/03/07 05:56:39;;;;;;;0.10;0.10;;;;;;;;;;4983889;28;20102;-87
2024/03/07 05:59:11;;;;;;;0.05;0.05;;;;;;;;;;4973086;28;20058;-87
2024/03/07 06:01:38;;;;;;;0.10;0.10;;;;;;;;;;4970984;28;20504;-87
2024/03/07 06:04:10;;;;;;;0.10;0.10;;;;;;;;;;4990820;28;20046;-88
2024/03/07 06:06:37;;;;;;;0.10;0.10;;;;;;;;;;4975371;28;20109;-89
2024/03/07 06:09:10;;;;;;;0.00;0.00;;;;;;;;;;4973092;28;20409;-87
2024/03/07 06:11:36;;;;;;;0.10;0.10;;;;;;;;;;4989559;28;20067;-87
2024/03/07 06:14:05;;;;;;;0.10;0.10;;;;;;;;;;4976409;28;20082;-87
2024/03/07 06:16:32;;;;;;;0.10;0.10;;;;;;;;;;4986435;28;20035;-87
2024/03/07 06:18:59;;;;;;;0.05;0.05;;;;;;;;;;4975851;28;20134;-87
2024/03/07 06:21:25;;;;;;;0.10;0.10;;;;;;;;;;4991414;28;20097;-88
2024/03/07 06:23:59;;;;;;;0.00;0.00;;;;;;;;;;4987825;28;20045;-89
2024/03/07 06:26:36;;;;;;;0.00;0.00;;;;;;;;;;4989084;28;20026;-88
2024/03/07 06:29:04;;;;;;;0.00;0.00;;;;;;;;;;4988973;28;20099;-87
2024/03/07 06:31:30;;;;;;;0.00;0.00;;;;;;;;;;4969168;28;20023;-87
2024/03/07 06:33:56;;;;;;;0.00;0.00;;;;;;;;;;4991036;28;20065;-87
2024/03/07 06:36:22;;;;;;;0.10;0.10;;;;;;;;;;4973917;28;20612;-87
2024/03/07 06:38:49;;;;;;;0.10;0.10;;;;;;;;;;4972449;28;20097;-88
2024/03/07 06:41:15;;;;;;;0.00;0.00;;;;;;;;;;5006962;28;20109;-87
2024/03/07 06:43:41;;;;;;;0.10;0.10;;;;;;;;;;5008192;28;20039;-87
2024/03/07 06:46:09;;;;;;;0.00;0.00;;;;;;;;;;4988547;28;20030;-87
2024/03/07 06:48:35;;;;;;;0.00;0.00;;;;;;;;;;4987952;28;20032;-88
2024/03/07 06:51:01;;;;;;;0.10;0.10;;;;;;;;;;4976064;28;20039;-86
2024/03/07 06:53:28;;;;;;;0.03;0.03;;;;;;;;;;4991068;28;20038;-86
2024/03/07 06:55:55;;;;;;;0.10;0.10;;;;;;;;;;4983392;28;20027;-88
2024/03/07 06:58:21;;;;;;;0.00;0.00;;;;;;;;;;4998009;28;20023;-86
2024/03/07 07:00:47;;;;;;;0.10;0.10;;;;;;;;;;4994977;28;20041;-87
2024/03/07 07:03:14;;;;;;;0.10;0.10;;;;;;;;;;4993886;28;20098;-87
2024/03/07 07:05:40;;;;;;;0.10;0.10;;;;;;;;;;4979826;28;20056;-87
2024/03/07 07:08:07;;;;;;;0.00;0.00;;;;;;;;;;4997292;28;20498;-87
2024/03/07 07:10:33;;;;;;;0.10;0.10;;;;;;;;;;4996628;28;20522;-88
2024/03/07 07:12:59;;;;;;;0.10;0.10;;;;;;;;;;4998916;28;20485;-88
2024/03/07 07:15:25;;;;;;;0.00;0.00;;;;;;;;;;4981138;28;20447;-88
2024/03/07 07:17:52;;;;;;;0.03;0.03;;;;;;;;;;4999249;28;20030;-88
2024/03/07 07:20:18;;;;;;;0.10;0.10;;;;;;;;;;4979902;28;20538;-86
2024/03/07 07:22:46;;;;;;;0.03;0.03;;;;;;;;;;4989510;28;20027;-87
2024/03/07 07:25:15;;;;;;;0.05;0.05;;;;;;;;;;4994336;28;20517;-87
2024/03/07 07:27:42;;;;;;;0.10;0.10;;;;;;;;;;4996330;28;20035;-88
2024/03/07 07:30:09;;;;;;;0.10;0.10;;;;;;;;;;4999622;28;20039;-87
2024/03/07 07:32:36;;;;;;;0.10;0.10;;;;;;;;;;5001904;28;20039;-89
2024/03/07 07:35:02;;;;;;;0.10;0.10;;;;;;;;;;4997918;28;20026;-88
2024/03/07 07:37:28;;;;;;;0.10;0.10;;;;;;;;;;4993430;28;20022;-88
2024/03/07 07:39:54;;;;;;;0.00;0.00;;;;;;;;;;4998626;28;20524;-88
2024/03/07 07:42:20;;;;;;;0.10;0.10;;;;;;;;;;4989532;28;20037;-86
2024/03/07 07:44:46;;;;;;;0.10;0.10;;;;;;;;;;4987365;28;20488;-87
2024/03/07 07:47:12;;;;;;;0.00;0.00;;;;;;;;;;4991666;28;20027;-88
2024/03/07 07:49:38;;;;;;;0.03;0.03;;;;;;;;;;4993144;28;20065;-85
2024/03/07 07:52:05;;;;;;;0.00;0.00;;;;;;;;;;4980252;28;20149;-89
2024/03/07 07:54:31;;;;;;;0.10;0.10;;;;;;;;;;4997914;28;20019;-88
2024/03/07 07:56:57;;;;;;;0.10;0.10;;;;;;;;;;4996885;28;20035;-87
2024/03/07 07:59:23;;;;;;;0.00;0.00;;;;;;;;;;4981411;28;20034;-87
2024/03/07 08:01:50;;;;;;;0.00;0.00;;;;;;;;;;5005215;28;20110;-86
2024/03/07 08:04:16;;;;;;;0.10;0.10;;;;;;;;;;4996536;28;20098;-87
2024/03/07 08:06:43;;;;;;;0.10;0.10;;;;;;;;;;4974489;28;20035;-87
2024/03/07 08:09:09;;;;;;;0.10;0.10;;;;;;;;;;4998962;28;20045;-87
2024/03/07 08:11:36;;;;;;;0.10;0.10;;;;;;;;;;4978379;28;20038;-88
2024/03/07 08:14:03;;;;;;;0.10;0.10;;;;;;;;;;4995745;28;20096;-87
2024/03/07 08:16:29;;;;;;;0.00;0.00;;;;;;;;;;4997670;28;20054;-86
2024/03/07 08:18:55;;;;;;;0.10;0.10;;;;;;;;;;5003860;28;20030;-87
2024/03/07 08:21:23;;;;;;;0.10;0.10;;;;;;;;;;4993095;28;20505;-87
2024/03/07 08:23:49;;;;;;;0.10;0.10;;;;;;;;;;4994505;28;20553;-87
2024/03/07 08:26:15;;;;;;;0.08;0.08;;;;;;;;;;5008679;28;20034;-88
2024/03/07 08:28:41;;;;;;;0.10;0.10;;;;;;;;;;5010953;28;20027;-88
2024/03/07 08:31:09;;;;;;;0.00;0.00;;;;;;;;;;5000579;28;20089;-88
2024/03/07 08:33:35;;;;;;;0.10;0.10;;;;;;;;;;4999369;28;20102;-90
2024/03/07 08:36:01;;;;;;;0.10;0.10;;;;;;;;;;5001297;28;20496;-87
2024/03/07 08:38:27;;;;;;;0.08;0.08;;;;;;;;;;4994327;28;20027;-87
2024/03/07 08:40:52;;;;;;;0.10;0.10;;;;;;;;;;4996650;28;20070;-88
2024/03/07 08:43:18;;;;;;;0.00;0.00;;;;;;;;;;4992887;28;20376;-87
2024/03/07 08:45:44;;;;;;;0.10;0.10;;;;;;;;;;4986436;28;20030;-87
2024/03/07 08:48:11;;;;;;;0.00;0.00;;;;;;;;;;4980859;28;20030;-88
2024/03/07 08:50:37;;;;;;;0.10;0.10;;;;;;;;;;4984109;28;20027;-88
2024/03/07 08:53:07;;;;;;;0.10;0.10;;;4.80;99.90;;;;;;4976199;28;20510;-89
2024/03/07 08:55:35;;;;;;;0.00;0.00;;;;;;;;;;4982843;28;20035;-89
2024/03/07 08:58:01;;;;;;;0.00;0.00;;;;;;;;;;4978421;28;20045;-88
2024/03/07 09:00:27;;;;;;;0.10;0.10;;;;;;;;;;4998159;28;20038;-89
2024/03/07 09:02:58;;;;;;;0.10;0.10;;;5.00;99.90;;;;;;4990594;28;20046;-87
2024/03/07 09:05:24;;;;;;;0.00;0.00;;;;;;;;;;4986293;28;20043;-87
2024/03/07 09:07:50;;;;;;;0.05;0.05;;;;;;;;;;4969394;28;20031;-88
2024/03/07 09:10:17;;;;;;;0.00;0.00;;;;;;;;;;4977350;28;20034;-88
2024/03/07 09:12:43;;;;;;;0.10;0.10;;;;;;;;;;4976286;28;20555;-87
2024/03/07 09:15:13;;;;;;;0.10;0.10;;;;;;;;;;4992821;28;20693;-88
2024/03/07 09:17:39;;;;;;;0.00;0.00;;;;;;;;;;5006813;28;20035;-89
2024/03/07 09:20:14;;;;;;;0.10;0.10;;;;;;;;;;4992929;28;20077;-87
2024/03/07 09:22:40;;;;;;;0.10;0.10;;;;;;;;;;4970327;28;20030;-87
2024/03/07 09:25:06;;;;;;;0.00;0.00;;;5.50;99.90;;;;;;4971927;28;20026;-87
2024/03/07 09:27:32;;;;;;;0.03;0.03;;;;;;;;;;4973159;28;20065;-87
2024/03/07 09:29:57;;;;;;;0.00;0.00;;;;;;;;;;4989092;28;20037;-87
2024/03/07 09:32:24;;;;;;;0.00;0.00;;;;;;;;;;4988054;28;20515;-88
2024/03/07 09:34:50;;;;;;;0.00;0.00;;;;;;;;;;5004077;28;20110;-87
2024/03/07 09:37:16;;;;;;;0.10;0.10;;;;;;;;;;4987143;28;20069;-87
2024/03/07 09:39:41;;;;;;;0.10;0.10;;;;;;;;;;4971709;28;20045;-87
2024/03/07 09:42:11;;;;;;;0.10;0.10;;;;;;;;;;4973470;28;20062;-88
2024/03/07 09:44:40;;;;;;;0.10;0.10;;;5.50;99.90;;;;;;4985666;28;20031;-88
2024/03/07 09:47:07;;;;;;;0.10;0.10;;;;;;;;;;5006582;28;20162;-87
2024/03/07 10:02:26;;;;;;;0.10;0.10;;;;;;;;;;4973571;28;20330;-89
2024/03/07 10:04:54;;;;;;;0.00;0.00;;;;;;;;;;4978201;28;20069;-90
2024/03/07 10:07:20;;;;;;;0.10;0.10;;;;;;;;;;4993012;28;20039;-87
2024/03/07 10:09:46;;;;;;;0.10;0.10;;;;;;;;;;5007341;28;20059;-88
2024/03/07 10:12:12;;;;;;;0.10;0.10;;;;;;;;;;4978019;28;20023;-88
2024/03/07 10:14:57;;;;;;;0.00;0.00;;;;;;;;;;4976407;28;20027;-90
2024/03/07 10:17:27;;;;;;;0.10;0.10;;;;;;;;;;4996335;28;20521;-92
2024/03/07 10:19:54;;;;;;;;;;;;;;;;;;4975907;28;20039;-87
2024/03/07 10:22:20;;;;;;;0.10;0.10;;;;;;;;;;4979625;28;19914;-88
2024/03/07 10:24:56;;;;;;;0.00;0.00;;;;;;;;;;4977318;28;20034;-88
2024/03/07 10:27:22;;;;;;;0.00;0.00;;;;;;;;;;4978932;28;20098;-86
2024/03/07 10:29:50;;;;;;;0.10;0.10;;;;;;;;;;4977300;28;20030;-88
2024/03/07 10:32:20;;;;;;;0.10;0.10;;;;;;;;;;4979002;28;20034;-91
2024/03/07 10:34:46;;;;;;;0.10;0.10;;;;;;;;;;4984020;28;20066;-89
2024/03/07 10:37:16;;;;;;;0.00;0.00;;;;;;;;;;4985561;28;20508;-90
2024/03/07 10:39:42;;;;;;;0.10;0.10;;;;;;;;;;4983030;28;20037;-88
2024/03/07 10:42:10;;;;;;;0.03;0.03;;;;;;;;;;5009739;28;20035;-89
2024/03/07 10:44:41;;;;;;;0.00;0.00;;;;;;;;;;4981525;28;20048;-87
2024/03/07 10:47:08;;;;;;;0.00;0.00;;;;;;;;;;4986613;28;20069;-88
2024/03/07 10:49:37;;;;;;;0.00;0.00;;;;;;;;;;4984094;28;20525;-88
2024/03/07 10:52:04;;;;;;;0.10;0.10;;;;;;;;;;4982941;28;20534;-88
2024/03/07 10:54:38;;;;;;;0.00;0.00;;;;;;;;;;4984614;28;20106;-86
2024/03/07 10:57:11;;;;;;;0.10;0.10;;;;;;;;;;4979031;28;20038;-88
2024/03/07 10:59:39;;;;;;;0.03;0.03;;;;;;;;;;4994537;28;20034;-90
2024/03/07 11:02:06;;;;;;;0.10;0.10;;;;;;;;;;4984882;28;20045;-89
2024/03/07 11:04:34;;;;;;;0.10;0.10;;;;;;;;;;4982219;28;20061;-88
2024/03/07 11:07:00;;;;;;;0.10;0.10;;;;;;;;;;4982644;28;20053;-89
2024/03/07 11:09:32;;;;;;;0.10;0.10;;;;;;;;;;4983664;28;20130;-87
2024/03/07 11:12:00;;;;;;;0.00;0.00;;;;;;;;;;5013447;28;20031;-88
2024/03/07 11:14:26;;;;;;;0.10;0.10;;;;;;;;;;4987510;28;20031;-90
2024/03/07 11:16:52;;;;;;;0.10;0.10;;;;;;;;;;4984918;28;20039;-90
2024/03/07 11:19:27;;;;;;;0.10;0.10;;;;;;;;;;4982805;28;20138;-88
2024/03/07 11:21:54;;;;;;;0.10;0.10;;;;;;;;;;4981915;28;20041;-88
2024/03/07 11:24:38;;;;;;;0.10;0.10;;;;;;;;;;4980509;28;20034;-88
2024/03/07 11:27:04;;;;;;;0.10;0.10;;;;;;;;;;4984802;28;20047;-92
2024/03/07 11:29:52;;;;;;;0.10;0.10;;;;;;;;;;4979556;28;20114;-88
2024/03/07 11:32:20;;;;;;;0.00;0.00;;;;;;;;;;5012947;28;20489;-90
2024/03/07 11:34:47;;;;;;;0.08;0.08;;;;;;;;;;4984288;28;20027;-90
2024/03/07 11:37:48;;;;;;;0.10;0.10;;;;;;;;;;5009507;28;20492;-90
2024/03/07 11:40:34;;;;;;;0.00;0.00;;;;;;;;;;4974949;28;20485;-89
2024/03/07 11:43:04;;;;;;;0.10;0.10;;;7.00;99.90;;;;;;5005458;28;20046;-88
2024/03/07 11:45:33;;;;;;;0.10;0.10;;;;;;;;;;4980407;28;20042;-88
2024/03/07 11:48:20;;;;;;;0.10;0.10;;;;;;;;;;4979169;28;20039;-89
2024/03/07 11:50:45;;;;;;;0.10;0.10;;;;;;;;;;5014832;28;20058;-90
2024/03/07 11:53:11;;;;;;;0.00;0.00;;;;;;;;;;4982046;28;20038;-90
2024/03/07 11:55:45;;;;;;;0.10;0.10;;;7.60;99.90;;;;;;4978751;28;20488;-91
2024/03/07 11:58:17;;;;;;;0.08;0.08;;;7.90;99.90;;;;;;4976737;28;20026;-89
2024/03/07 12:00:45;;;;;;;0.00;0.00;;;7.90;99.90;;;;;;4982852;28;20046;-89
2024/03/07 12:03:17;;;;;;;0.00;0.00;;;8.00;99.90;;;;;;4984420;28;20035;-89
2024/03/07 12:05:43;;;;;;;0.10;0.10;;;8.20;99.90;;;;;;4992956;28;20034;-88
2024/03/07 12:08:13;;;;;;;0.00;0.00;;;8.40;99.90;;;;;;4982622;28;20030;-90
2024/03/07 12:10:43;;;;;;;0.10;0.10;;;8.60;99.90;;;;;;4995105;28;20026;-89
2024/03/07 12:13:11;;;;;;;0.10;0.10;;;8.70;99.90;;;;;;4989530;28;20034;-88
2024/03/07 12:15:40;;;;;;;0.00;0.00;;;;;;;;;;4990411;28;20472;-89
2024/03/07 12:18:27;;;;;;;;;;;;;;;;;;;;;
2024/03/07 12:21:08;;;;;;;0.10;0.10;;;;;;;;;;4987432;28;20109;-90
2024/03/07 12:23:35;;;;;;;0.10;0.10;;;;;;;;;;4987599;28;20786;-88
2024/03/07 12:26:17;;;;;;;;;;;;;;;;;;;;;
2024/03/07 12:28:55;;;;;;;0.03;0.03;;;;;;;;;;4979613;28;20086;-89
2024/03/07 12:31:24;;;;;;;0.10;0.10;;;;;;;;;;4978319;28;20035;-90
2024/03/07 12:33:51;;;;;;;0.10;0.10;;;9.00;99.90;;;;;;5012024;28;20026;-89
2024/03/07 12:36:17;;;;;;;0.10;0.10;;;;;;;;;;4978867;28;20037;-89
2024/03/07 12:38:43;;;;;;;0.00;0.00;;;;;;;;;;4979221;28;20381;-89
2024/03/07 12:41:16;;;;;;;0.10;0.10;;;;;;;;;;4980258;28;20022;-89
2024/03/07 12:43:42;;;;;;;0.00;0.00;;;9.00;99.90;;;;;;5010142;28;20031;-90
2024/03/07 12:46:11;;;;;;;0.10;0.10;;;8.90;99.90;;;;;;4977570;28;20034;-89
2024/03/07 12:48:38;;;;;;;0.10;0.10;;;;;;;;;;4976082;28;20436;-91
2024/03/07 12:51:04;;;;;;;0.00;0.00;;;8.80;99.90;;;;;;4973443;28;20114;-91
2024/03/07 12:53:31;;;;;;;0.10;0.10;;;;;;;;;;4974986;28;20453;-88
2024/03/07 12:55:57;;;;;;;0.10;0.10;;;;;;;;;;4983059;28;20030;-91
2024/03/07 12:58:25;;;;;;;0.00;0.00;;;;;;;;;;4980069;28;20023;-90
2024/03/07 13:00:52;;;;;;;0.10;0.10;;;9.00;99.90;;;;;;4980039;28;20038;-90
2024/03/07 13:03:18;;;;;;;0.10;0.10;;;;;;;;;;4981046;28;20026;-90
2024/03/07 13:05:44;;;;;;;0.10;0.10;;;;;;;;;;4973773;28;20042;-93
2024/03/07 13:08:14;;;;;;;0.10;0.10;;;;;;;;;;5005047;28;20023;-89
2024/03/07 13:10:42;;;;;;;0.10;0.10;;;9.00;99.90;;;;;;4954820;28;20038;-94
2024/03/07 13:13:10;;;;;;;0.00;0.00;;;;;;;;;;4969411;28;20260;-91
2024/03/07 13:15:38;;;;;;;0.10;0.10;;;;;;;;;;4974683;28;20038;-87
2024/03/07 13:18:04;;;;;;;0.10;0.10;;;;;;;;;;4978324;28;20232;-87
2024/03/07 13:20:30;;;;;;;0.10;0.10;;;;;;;;;;4978115;28;20489;-89
2024/03/07 13:22:58;;;;;;;0.10;0.10;;;;;;;;;;4971145;28;20038;-89
2024/03/07 13:25:25;;;;;;;0.10;0.10;;;9.00;99.90;;;;;;5007010;28;20121;-90
2024/03/07 13:27:55;;;;;;;0.10;0.10;;;9.10;99.90;;;;;;4976198;28;20054;-89
2024/03/07 13:30:26;;;;;;;0.00;0.00;;;9.10;99.90;;;;;;4974922;28;20035;-89
2024/03/07 13:32:52;;;;;;;0.10;0.10;;;;;;;;;;4970907;28;20102;-89
2024/03/07 13:35:20;;;;;;;0.10;0.10;;;;;;;;;;5004830;28;20438;-88
2024/03/07 13:37:47;;;;;;;0.10;0.10;;;;;;;;;;4977133;28;20026;-92
2024/03/07 13:40:25;;;;;;;0.00;0.00;;;;;;;;;;4968562;28;20035;-88
2024/03/07 13:42:54;;;;;;;0.10;0.10;;;;;;;;;;4969786;28;20034;-89
2024/03/07 13:45:28;;;;;;;0.10;0.10;;;8.90;99.90;;;;;;4979715;28;20086;-88
2024/03/07 13:47:54;;;;;;;0.10;0.10;;;8.90;99.90;;;;;;4987838;28;20113;-88
2024/03/07 13:50:22;;;;;;;0.10;0.10;;;8.80;99.90;;;;;;4978660;28;20531;-90
2024/03/07 13:56:07;;;;;;;0.00;0.00;;;8.70;99.90;;;;;;4977847;28;20038;-91
2024/03/07 13:58:33;;;;;;;0.10;0.10;;;;;;;;;;4985660;28;20089;-89
2024/03/07 14:01:20;;;;;;;0.00;0.00;;;9.10;99.90;;;;;;4974404;28;20058;-91
2024/03/07 14:04:22;;;;;;;0.10;0.10;;;9.10;99.90;;;;;;4986277;28;20092;-90
2024/03/07 14:07:26;;;;;;;0.10;0.10;;;8.90;99.90;;;;;;4972725;28;20224;-90
2024/03/07 14:10:21;;;;;;;0.10;0.10;;;9.10;99.90;;;;;;4980629;28;20090;-90
2024/03/07 14:13:13;;;;;;;0.10;0.10;;;9.10;99.90;;;;;;4985469;28;20031;-91
2024/03/07 14:15:51;;;;;;;0.10;0.10;;;9.20;99.90;;;;;;4981025;28;20111;-90
2024/03/07 14:18:52;;;;;;;0.00;0.00;;;9.20;99.90;;;;;;4988307;28;20066;-89
2024/03/07 14:21:48;;;;;;;0.10;0.10;;;9.20;99.90;;;;;;4981968;28;20401;-90
2024/03/07 14:24:58;;;;;;;0.10;0.10;;;9.30;99.90;;;;;;4980120;28;20049;-89
2024/03/07 14:27:55;;;;;;;0.10;0.10;;;9.30;99.90;;;;;;4987156;28;20134;-90
2024/03/07 14:30:27;;;;;;;0.08;0.08;;;;;;;;;;4985074;28;20035;-91
2024/03/07 14:33:00;;;;;;;0.10;0.10;;;9.20;99.90;;;;;;4980142;28;20073;-90
2024/03/07 14:35:33;;;;;;;0.10;0.10;;;9.20;99.90;;;;;;4979126;28;20030;-89
2024/03/07 14:38:23;;;;;;;0.10;0.10;;;9.20;99.90;;;;;;4988126;28;20026;-91
2024/03/07 14:40:50;;;;;;;0.10;0.10;;;;;;;;;;4985699;28;20041;-91
2024/03/07 14:43:16;;;;;;;0.10;0.10;;;9.20;99.90;;;;;;4996222;28;20026;-90
2024/03/07 14:46:44;;;;;;;0.10;0.10;;;9.40;99.90;;;;;;4985159;28;20641;-89
2024/03/07 14:56:11;;;;;;;0.00;0.00;;;;;;;;;;4884244;29;20126;-91
2024/03/07 14:58:38;;;;;;;0.00;0.00;;;;;;;;;;4914088;29;20049;-93
2024/03/07 15:01:06;;;;;;;0.03;0.03;;;;;;;;;;4945088;28;20054;-93
2024/03/07 15:03:32;;;;;;;0.10;0.10;;;;;;;;;;4983913;28;20053;-92
2024/03/07 15:05:58;;;;;;;0.03;0.03;;;;;;;;;;4980354;28;20401;-93
2024/03/07 15:08:27;;;;;;;0.00;0.00;;;;;;;;;;4985672;28;20023;-93
2024/03/07 15:11:08;;;;;;;0.00;0.00;;;9.40;99.90;;;;;;4989185;28;20082;-90
2024/03/07 15:13:34;;;;;;;0.10;0.10;;;;;;;;;;4982755;28;20049;-92
2024/03/07 15:16:00;;;;;;;0.00;0.00;;;;;;;;;;4981095;28;20031;-92
2024/03/07 15:18:27;;;;;;;0.00;0.00;;;;;;;;;;5015121;28;20066;-92
2024/03/07 15:20:53;;;;;;;0.10;0.10;;;;;;;;;;4976239;28;20034;-91
2024/03/07 15:23:19;;;;;;;0.10;0.10;;;;;;;;;;4979388;28;20058;-91
2024/03/07 15:25:45;;;;;;;0.10;0.10;;;;;;;;;;4974130;28;20035;-91
2024/03/07 15:31:06;;;;;;;0.00;0.00;;;;;;;;;;4977911;28;20039;-91
2024/03/07 15:33:38;;;;;;;0.10;0.10;;;;;;;;;;4981318;28;20527;-91
2024/03/07 15:36:05;;;;;;;0.05;0.05;;;;;;;;;;5009368;28;20056;-91
2024/03/07 15:38:37;;;;;;;0.10;0.10;;;;;;;;;;5013739;28;20023;-93
2024/03/07 15:41:04;;;;;;;0.00;0.00;;;;;;;;;;4970500;28;20023;-90
2024/03/07 15:43:30;;;;;;;0.00;0.00;;;;;;;;;;4989060;28;20122;-90
2024/03/07 15:45:59;;;;;;;0.00;0.00;;;;;;;;;;4976515;28;20038;-91
2024/03/07 15:48:25;;;;;;;0.10;0.10;;;;;;;;;;5008916;28;20102;-90
2024/03/07 15:50:52;;;;;;;0.10;0.10;;;9.30;99.90;;;;;;4978806;28;20632;-91